sensor_id;sensor_type;location;lat;lon;timestamp;P1;durP1;ratioP1;P2;durP2;ratioP2
61903;SDS011;47857;52.270;6.804;2023-03-01T00:00:14;21.35;;;12.85;;
61903;SDS011;47857;52.270;6.804;2023-03-01T00:02:40;20.80;;;13.02;;
61903;SDS011;47857;52.270;6.804;2023-03-01T00:05:06;20.75;;;12.77;;
61903;SDS011;47857;52.270;6.804;2023-03-01T00:07:32;22.45;;;13.38;;
61903;SDS011;47857;52.270;6.804;2023-03-01T00:09:58;22.58;;;13.05;;
61903;SDS011;47857;52.270;6.804;2023-03-01T00:12:23;22.38;;;11.65;;
61903;SDS011;47857;52.270;6.804;2023-03-01T00:14:49;20.02;;;11.57;;
61903;SDS011;47857;52.270;6.804;2023-03-01T00:17:15;19.95;;;12.68;;
61903;SDS011;47857;52.270;6.804;2023-03-01T00:19:40;27.08;;;18.77;;
61903;SDS011;47857;52.270;6.804;2023-03-01T00:22:06;25.80;;;15.27;;
61903;SDS011;47857;52.270;6.804;2023-03-01T00:24:32;22.35;;;12.45;;
61903;SDS011;47857;52.270;6.804;2023-03-01T00:26:57;22.73;;;13.30;;
61903;SDS011;47857;52.270;6.804;2023-03-01T00:29:23;31.42;;;17.10;;
61903;SDS011;47857;52.270;6.804;2023-03-01T00:31:49;30.65;;;17.75;;
61903;SDS011;47857;52.270;6.804;2023-03-01T00:34:15;22.23;;;12.77;;
61903;SDS011;47857;52.270;6.804;2023-03-01T00:36:41;21.83;;;11.40;;
61903;SDS011;47857;52.270;6.804;2023-03-01T00:39:08;20.42;;;11.68;;
61903;SDS011;47857;52.270;6.804;2023-03-01T00:41:36;20.73;;;12.30;;
61903;SDS011;47857;52.270;6.804;2023-03-01T00:44:02;18.38;;;10.90;;
61903;SDS011;47857;52.270;6.804;2023-03-01T00:46:28;17.85;;;10.93;;
61903;SDS011;47857;52.270;6.804;2023-03-01T00:48:55;22.25;;;11.15;;
61903;SDS011;47857;52.270;6.804;2023-03-01T00:51:22;16.67;;;10.07;;
61903;SDS011;47857;52.270;6.804;2023-03-01T00:53:50;18.35;;;10.77;;
61903;SDS011;47857;52.270;6.804;2023-03-01T00:56:16;24.77;;;15.30;;
61903;SDS011;47857;52.270;6.804;2023-03-01T00:58:42;26.13;;;15.70;;
61903;SDS011;47857;52.270;6.804;2023-03-01T01:01:12;15.82;;;10.43;;
61903;SDS011;47857;52.270;6.804;2023-03-01T01:06:26;17.55;;;9.68;;
61903;SDS011;47857;52.270;6.804;2023-03-01T01:09:03;14.40;;;9.48;;
61903;SDS011;47857;52.270;6.804;2023-03-01T01:11:30;17.95;;;11.02;;
61903;SDS011;47857;52.270;6.804;2023-03-01T01:13:57;16.42;;;9.77;;
61903;SDS011;47857;52.270;6.804;2023-03-01T01:16:24;16.60;;;9.63;;
61903;SDS011;47857;52.270;6.804;2023-03-01T01:18:51;17.05;;;9.00;;
61903;SDS011;47857;52.270;6.804;2023-03-01T01:21:17;15.98;;;9.45;;
61903;SDS011;47857;52.270;6.804;2023-03-01T01:23:44;15.95;;;9.70;;
61903;SDS011;47857;52.270;6.804;2023-03-01T01:26:12;14.82;;;8.95;;
61903;SDS011;47857;52.270;6.804;2023-03-01T01:28:39;15.38;;;8.80;;
61903;SDS011;47857;52.270;6.804;2023-03-01T01:31:05;14.93;;;8.50;;
61903;SDS011;47857;52.270;6.804;2023-03-01T01:33:32;13.75;;;8.20;;
61903;SDS011;47857;52.270;6.804;2023-03-01T01:35:58;14.77;;;9.23;;
61903;SDS011;47857;52.270;6.804;2023-03-01T01:38:24;13.90;;;8.60;;
61903;SDS011;47857;52.270;6.804;2023-03-01T01:40:49;13.90;;;8.82;;
61903;SDS011;47857;52.270;6.804;2023-03-01T01:43:34;16.67;;;8.80;;
61903;SDS011;47857;52.270;6.804;2023-03-01T01:51:25;11.98;;;6.75;;
61903;SDS011;47857;52.270;6.804;2023-03-01T01:53:56;11.27;;;6.60;;
61903;SDS011;47857;52.270;6.804;2023-03-01T01:56:24;12.65;;;7.38;;
61903;SDS011;47857;52.270;6.804;2023-03-01T01:58:50;13.20;;;7.60;;
61903;SDS011;47857;52.270;6.804;2023-03-01T02:01:16;10.70;;;7.18;;
61903;SDS011;47857;52.270;6.804;2023-03-01T02:03:42;11.13;;;6.68;;
61903;SDS011;47857;52.270;6.804;2023-03-01T02:06:12;10.27;;;6.68;;
61903;SDS011;47857;52.270;6.804;2023-03-01T02:08:44;11.60;;;6.72;;
61903;SDS011;47857;52.270;6.804;2023-03-01T02:11:11;11.05;;;6.97;;
61903;SDS011;47857;52.270;6.804;2023-03-01T02:13:39;10.32;;;6.60;;
61903;SDS011;47857;52.270;6.804;2023-03-01T02:16:08;9.85;;;6.18;;
61903;SDS011;47857;52.270;6.804;2023-03-01T02:18:34;11.48;;;6.05;;
61903;SDS011;47857;52.270;6.804;2023-03-01T02:21:03;12.40;;;6.38;;
61903;SDS011;47857;52.270;6.804;2023-03-01T02:23:33;11.38;;;6.32;;
61903;SDS011;47857;52.270;6.804;2023-03-01T02:28:40;13.15;;;6.72;;
61903;SDS011;47857;52.270;6.804;2023-03-01T02:31:08;10.30;;;6.38;;
61903;SDS011;47857;52.270;6.804;2023-03-01T02:33:53;10.80;;;6.55;;
61903;SDS011;47857;52.270;6.804;2023-03-01T02:36:21;10.93;;;6.25;;
61903;SDS011;47857;52.270;6.804;2023-03-01T02:38:49;10.75;;;6.38;;
61903;SDS011;47857;52.270;6.804;2023-03-01T02:41:18;10.85;;;6.53;;
61903;SDS011;47857;52.270;6.804;2023-03-01T02:43:45;11.30;;;6.13;;
61903;SDS011;47857;52.270;6.804;2023-03-01T02:46:15;11.60;;;6.15;;
61903;SDS011;47857;52.270;6.804;2023-03-01T02:51:22;10.98;;;6.28;;
61903;SDS011;47857;52.270;6.804;2023-03-01T02:54:01;12.70;;;6.72;;
61903;SDS011;47857;52.270;6.804;2023-03-01T02:56:31;11.43;;;6.95;;
61903;SDS011;47857;52.270;6.804;2023-03-01T02:58:57;10.73;;;6.07;;
61903;SDS011;47857;52.270;6.804;2023-03-01T03:01:26;10.65;;;6.78;;
61903;SDS011;47857;52.270;6.804;2023-03-01T03:04:06;10.10;;;6.40;;
61903;SDS011;47857;52.270;6.804;2023-03-01T03:06:33;10.05;;;5.88;;
61903;SDS011;47857;52.270;6.804;2023-03-01T03:08:59;11.68;;;6.38;;
61903;SDS011;47857;52.270;6.804;2023-03-01T03:11:25;9.88;;;6.20;;
61903;SDS011;47857;52.270;6.804;2023-03-01T03:13:51;9.80;;;6.68;;
61903;SDS011;47857;52.270;6.804;2023-03-01T03:16:17;9.23;;;5.68;;
61903;SDS011;47857;52.270;6.804;2023-03-01T03:18:44;11.38;;;6.18;;
61903;SDS011;47857;52.270;6.804;2023-03-01T03:21:10;9.93;;;6.22;;
61903;SDS011;47857;52.270;6.804;2023-03-01T03:23:37;11.90;;;5.97;;
61903;SDS011;47857;52.270;6.804;2023-03-01T03:26:03;9.35;;;6.22;;
61903;SDS011;47857;52.270;6.804;2023-03-01T03:28:29;9.77;;;5.72;;
61903;SDS011;47857;52.270;6.804;2023-03-01T03:30:58;8.20;;;5.70;;
61903;SDS011;47857;52.270;6.804;2023-03-01T03:33:28;11.02;;;5.90;;
61903;SDS011;47857;52.270;6.804;2023-03-01T03:35:55;9.93;;;5.93;;
61903;SDS011;47857;52.270;6.804;2023-03-01T03:38:20;10.07;;;5.82;;
61903;SDS011;47857;52.270;6.804;2023-03-01T03:40:51;12.35;;;5.72;;
61903;SDS011;47857;52.270;6.804;2023-03-01T03:43:29;9.48;;;6.03;;
61903;SDS011;47857;52.270;6.804;2023-03-01T03:45:56;10.88;;;5.57;;
61903;SDS011;47857;52.270;6.804;2023-03-01T03:48:22;10.80;;;5.40;;
61903;SDS011;47857;52.270;6.804;2023-03-01T03:50:49;11.93;;;5.82;;
61903;SDS011;47857;52.270;6.804;2023-03-01T03:53:15;9.95;;;5.95;;
61903;SDS011;47857;52.270;6.804;2023-03-01T03:55:41;9.95;;;6.28;;
61903;SDS011;47857;52.270;6.804;2023-03-01T03:58:07;10.45;;;6.60;;
61903;SDS011;47857;52.270;6.804;2023-03-01T04:03:04;9.00;;;6.32;;
61903;SDS011;47857;52.270;6.804;2023-03-01T04:05:30;10.30;;;6.38;;
61903;SDS011;47857;52.270;6.804;2023-03-01T04:07:56;13.32;;;6.18;;
61903;SDS011;47857;52.270;6.804;2023-03-01T04:10:32;12.60;;;5.85;;
61903;SDS011;47857;52.270;6.804;2023-03-01T04:12:59;9.52;;;6.00;;
61903;SDS011;47857;52.270;6.804;2023-03-01T04:15:25;9.27;;;5.93;;
61903;SDS011;47857;52.270;6.804;2023-03-01T04:17:52;8.15;;;5.55;;
61903;SDS011;47857;52.270;6.804;2023-03-01T04:20:19;10.95;;;6.15;;
61903;SDS011;47857;52.270;6.804;2023-03-01T04:22:50;12.25;;;6.57;;
61903;SDS011;47857;52.270;6.804;2023-03-01T04:25:42;12.82;;;6.82;;
61903;SDS011;47857;52.270;6.804;2023-03-01T04:28:10;11.52;;;5.88;;
61903;SDS011;47857;52.270;6.804;2023-03-01T04:30:36;8.48;;;5.95;;
61903;SDS011;47857;52.270;6.804;2023-03-01T04:33:06;9.70;;;6.32;;
61903;SDS011;47857;52.270;6.804;2023-03-01T04:35:33;13.00;;;6.38;;
61903;SDS011;47857;52.270;6.804;2023-03-01T04:37:59;10.15;;;6.30;;
61903;SDS011;47857;52.270;6.804;2023-03-01T04:40:26;9.00;;;6.10;;
61903;SDS011;47857;52.270;6.804;2023-03-01T04:42:51;11.02;;;6.38;;
61903;SDS011;47857;52.270;6.804;2023-03-01T04:45:17;10.82;;;6.45;;
61903;SDS011;47857;52.270;6.804;2023-03-01T04:47:43;12.68;;;6.32;;
61903;SDS011;47857;52.270;6.804;2023-03-01T04:50:11;10.35;;;6.15;;
61903;SDS011;47857;52.270;6.804;2023-03-01T04:52:38;9.93;;;6.10;;
61903;SDS011;47857;52.270;6.804;2023-03-01T04:55:04;9.65;;;6.32;;
61903;SDS011;47857;52.270;6.804;2023-03-01T04:57:30;10.85;;;6.80;;
61903;SDS011;47857;52.270;6.804;2023-03-01T04:59:56;11.75;;;6.20;;
61903;SDS011;47857;52.270;6.804;2023-03-01T05:02:21;10.73;;;6.32;;
61903;SDS011;47857;52.270;6.804;2023-03-01T05:04:47;11.60;;;6.55;;
61903;SDS011;47857;52.270;6.804;2023-03-01T05:07:12;9.98;;;6.28;;
61903;SDS011;47857;52.270;6.804;2023-03-01T05:09:41;11.88;;;7.03;;
61903;SDS011;47857;52.270;6.804;2023-03-01T05:12:06;11.65;;;6.55;;
61903;SDS011;47857;52.270;6.804;2023-03-01T05:14:32;11.38;;;6.30;;
61903;SDS011;47857;52.270;6.804;2023-03-01T05:16:57;11.80;;;6.50;;
61903;SDS011;47857;52.270;6.804;2023-03-01T05:19:29;12.43;;;7.03;;
61903;SDS011;47857;52.270;6.804;2023-03-01T05:21:56;11.57;;;6.57;;
61903;SDS011;47857;52.270;6.804;2023-03-01T05:24:31;11.68;;;6.65;;
61903;SDS011;47857;52.270;6.804;2023-03-01T05:27:00;10.73;;;6.68;;
61903;SDS011;47857;52.270;6.804;2023-03-01T05:29:27;10.88;;;6.65;;
61903;SDS011;47857;52.270;6.804;2023-03-01T05:31:57;10.23;;;6.40;;
61903;SDS011;47857;52.270;6.804;2023-03-01T05:34:24;11.32;;;6.28;;
61903;SDS011;47857;52.270;6.804;2023-03-01T05:36:51;9.48;;;6.55;;
61903;SDS011;47857;52.270;6.804;2023-03-01T05:39:21;11.43;;;6.45;;
61903;SDS011;47857;52.270;6.804;2023-03-01T05:41:48;12.20;;;6.55;;
61903;SDS011;47857;52.270;6.804;2023-03-01T05:44:17;11.25;;;6.93;;
61903;SDS011;47857;52.270;6.804;2023-03-01T05:46:42;12.43;;;6.63;;
61903;SDS011;47857;52.270;6.804;2023-03-01T05:49:08;11.48;;;6.57;;
61903;SDS011;47857;52.270;6.804;2023-03-01T05:51:33;10.93;;;6.40;;
61903;SDS011;47857;52.270;6.804;2023-03-01T05:53:59;11.45;;;7.07;;
61903;SDS011;47857;52.270;6.804;2023-03-01T05:56:25;12.52;;;7.18;;
61903;SDS011;47857;52.270;6.804;2023-03-01T05:58:50;13.63;;;7.30;;
61903;SDS011;47857;52.270;6.804;2023-03-01T06:01:16;12.30;;;6.80;;
61903;SDS011;47857;52.270;6.804;2023-03-01T06:03:41;12.85;;;6.65;;
61903;SDS011;47857;52.270;6.804;2023-03-01T06:06:07;12.98;;;6.82;;
61903;SDS011;47857;52.270;6.804;2023-03-01T06:08:32;11.48;;;7.20;;
61903;SDS011;47857;52.270;6.804;2023-03-01T06:10:58;12.20;;;7.15;;
61903;SDS011;47857;52.270;6.804;2023-03-01T06:13:23;10.70;;;6.85;;
61903;SDS011;47857;52.270;6.804;2023-03-01T06:15:49;12.55;;;7.47;;
61903;SDS011;47857;52.270;6.804;2023-03-01T06:18:15;12.60;;;6.93;;
61903;SDS011;47857;52.270;6.804;2023-03-01T06:20:40;13.85;;;7.43;;
61903;SDS011;47857;52.270;6.804;2023-03-01T06:23:06;10.48;;;7.32;;
61903;SDS011;47857;52.270;6.804;2023-03-01T06:25:31;13.48;;;7.22;;
61903;SDS011;47857;52.270;6.804;2023-03-01T06:27:57;13.18;;;7.22;;
61903;SDS011;47857;52.270;6.804;2023-03-01T06:30:23;12.20;;;7.53;;
61903;SDS011;47857;52.270;6.804;2023-03-01T06:32:50;11.57;;;6.95;;
61903;SDS011;47857;52.270;6.804;2023-03-01T06:35:16;11.70;;;7.30;;
61903;SDS011;47857;52.270;6.804;2023-03-01T06:37:43;12.73;;;7.45;;
61903;SDS011;47857;52.270;6.804;2023-03-01T06:40:09;12.82;;;7.18;;
61903;SDS011;47857;52.270;6.804;2023-03-01T06:42:37;11.32;;;7.13;;
61903;SDS011;47857;52.270;6.804;2023-03-01T06:45:03;13.90;;;8.27;;
61903;SDS011;47857;52.270;6.804;2023-03-01T06:47:30;13.60;;;7.85;;
61903;SDS011;47857;52.270;6.804;2023-03-01T06:49:55;14.60;;;8.48;;
61903;SDS011;47857;52.270;6.804;2023-03-01T06:52:21;12.70;;;8.20;;
61903;SDS011;47857;52.270;6.804;2023-03-01T06:54:46;13.18;;;7.85;;
61903;SDS011;47857;52.270;6.804;2023-03-01T06:57:11;16.73;;;8.40;;
61903;SDS011;47857;52.270;6.804;2023-03-01T06:59:37;14.02;;;8.07;;
61903;SDS011;47857;52.270;6.804;2023-03-01T07:02:02;14.07;;;7.88;;
61903;SDS011;47857;52.270;6.804;2023-03-01T07:04:28;15.82;;;7.63;;
61903;SDS011;47857;52.270;6.804;2023-03-01T07:06:55;15.07;;;7.25;;
61903;SDS011;47857;52.270;6.804;2023-03-01T07:09:24;13.93;;;7.80;;
61903;SDS011;47857;52.270;6.804;2023-03-01T07:11:49;13.52;;;6.82;;
61903;SDS011;47857;52.270;6.804;2023-03-01T07:14:15;12.45;;;7.47;;
61903;SDS011;47857;52.270;6.804;2023-03-01T07:16:41;12.05;;;7.75;;
61903;SDS011;47857;52.270;6.804;2023-03-01T07:19:06;16.25;;;7.75;;
61903;SDS011;47857;52.270;6.804;2023-03-01T07:21:32;12.45;;;7.90;;
61903;SDS011;47857;52.270;6.804;2023-03-01T07:23:57;15.18;;;8.30;;
61903;SDS011;47857;52.270;6.804;2023-03-01T07:26:23;12.70;;;7.28;;
61903;SDS011;47857;52.270;6.804;2023-03-01T07:28:48;12.80;;;7.75;;
61903;SDS011;47857;52.270;6.804;2023-03-01T07:31:14;13.93;;;7.85;;
61903;SDS011;47857;52.270;6.804;2023-03-01T07:33:39;12.27;;;7.22;;
61903;SDS011;47857;52.270;6.804;2023-03-01T07:36:05;13.35;;;7.38;;
61903;SDS011;47857;52.270;6.804;2023-03-01T07:38:31;15.85;;;6.95;;
61903;SDS011;47857;52.270;6.804;2023-03-01T07:40:57;10.70;;;7.10;;
61903;SDS011;47857;52.270;6.804;2023-03-01T07:43:24;12.88;;;6.68;;
61903;SDS011;47857;52.270;6.804;2023-03-01T07:45:50;11.93;;;6.70;;
61903;SDS011;47857;52.270;6.804;2023-03-01T07:48:15;11.85;;;7.00;;
61903;SDS011;47857;52.270;6.804;2023-03-01T07:50:41;11.05;;;6.82;;
61903;SDS011;47857;52.270;6.804;2023-03-01T07:53:06;13.00;;;7.28;;
61903;SDS011;47857;52.270;6.804;2023-03-01T07:55:32;11.63;;;6.78;;
61903;SDS011;47857;52.270;6.804;2023-03-01T07:57:58;14.32;;;6.80;;
61903;SDS011;47857;52.270;6.804;2023-03-01T08:00:23;14.35;;;7.70;;
61903;SDS011;47857;52.270;6.804;2023-03-01T08:02:49;12.98;;;6.60;;
61903;SDS011;47857;52.270;6.804;2023-03-01T08:05:14;10.38;;;6.80;;
61903;SDS011;47857;52.270;6.804;2023-03-01T08:07:40;14.63;;;6.55;;
61903;SDS011;47857;52.270;6.804;2023-03-01T08:10:05;12.73;;;6.70;;
61903;SDS011;47857;52.270;6.804;2023-03-01T08:12:31;11.07;;;6.50;;
61903;SDS011;47857;52.270;6.804;2023-03-01T08:14:57;11.63;;;6.93;;
61903;SDS011;47857;52.270;6.804;2023-03-01T08:17:22;11.27;;;7.22;;
61903;SDS011;47857;52.270;6.804;2023-03-01T08:19:48;11.18;;;6.55;;
61903;SDS011;47857;52.270;6.804;2023-03-01T08:22:13;11.35;;;7.15;;
61903;SDS011;47857;52.270;6.804;2023-03-01T08:24:39;11.27;;;6.88;;
61903;SDS011;47857;52.270;6.804;2023-03-01T08:27:04;11.50;;;6.88;;
61903;SDS011;47857;52.270;6.804;2023-03-01T08:29:31;10.50;;;6.70;;
61903;SDS011;47857;52.270;6.804;2023-03-01T08:31:57;12.48;;;6.55;;
61903;SDS011;47857;52.270;6.804;2023-03-01T08:34:22;10.50;;;6.30;;
61903;SDS011;47857;52.270;6.804;2023-03-01T08:36:48;12.57;;;6.50;;
61903;SDS011;47857;52.270;6.804;2023-03-01T08:39:16;15.25;;;6.38;;
61903;SDS011;47857;52.270;6.804;2023-03-01T08:41:43;12.50;;;6.90;;
61903;SDS011;47857;52.270;6.804;2023-03-01T08:44:09;10.27;;;6.03;;
61903;SDS011;47857;52.270;6.804;2023-03-01T08:46:39;12.35;;;6.25;;
61903;SDS011;47857;52.270;6.804;2023-03-01T08:49:06;9.63;;;5.95;;
61903;SDS011;47857;52.270;6.804;2023-03-01T08:51:32;11.40;;;5.75;;
61903;SDS011;47857;52.270;6.804;2023-03-01T08:54:05;9.40;;;5.60;;
61903;SDS011;47857;52.270;6.804;2023-03-01T08:56:31;9.95;;;6.00;;
61903;SDS011;47857;52.270;6.804;2023-03-01T08:58:57;10.55;;;6.38;;
61903;SDS011;47857;52.270;6.804;2023-03-01T09:01:23;10.05;;;6.15;;
61903;SDS011;47857;52.270;6.804;2023-03-01T09:03:48;10.90;;;5.70;;
61903;SDS011;47857;52.270;6.804;2023-03-01T09:06:14;10.27;;;5.60;;
61903;SDS011;47857;52.270;6.804;2023-03-01T09:08:45;8.77;;;5.20;;
61903;SDS011;47857;52.270;6.804;2023-03-01T09:11:13;9.80;;;5.10;;
61903;SDS011;47857;52.270;6.804;2023-03-01T09:13:41;9.27;;;5.18;;
61903;SDS011;47857;52.270;6.804;2023-03-01T09:16:07;9.80;;;4.15;;
61903;SDS011;47857;52.270;6.804;2023-03-01T09:18:33;7.60;;;4.38;;
61903;SDS011;47857;52.270;6.804;2023-03-01T09:21:05;9.73;;;4.50;;
61903;SDS011;47857;52.270;6.804;2023-03-01T09:23:33;9.43;;;4.43;;
61903;SDS011;47857;52.270;6.804;2023-03-01T09:26:01;7.65;;;4.10;;
61903;SDS011;47857;52.270;6.804;2023-03-01T09:28:27;7.53;;;3.53;;
61903;SDS011;47857;52.270;6.804;2023-03-01T09:30:52;7.38;;;4.20;;
61903;SDS011;47857;52.270;6.804;2023-03-01T09:33:18;6.15;;;3.90;;
61903;SDS011;47857;52.270;6.804;2023-03-01T09:35:43;7.70;;;4.20;;
61903;SDS011;47857;52.270;6.804;2023-03-01T09:38:14;8.43;;;4.15;;
61903;SDS011;47857;52.270;6.804;2023-03-01T09:40:43;6.32;;;3.83;;
61903;SDS011;47857;52.270;6.804;2023-03-01T09:46:13;6.45;;;3.67;;
61903;SDS011;47857;52.270;6.804;2023-03-01T09:48:43;8.20;;;3.90;;
61903;SDS011;47857;52.270;6.804;2023-03-01T09:51:25;6.38;;;3.95;;
61903;SDS011;47857;52.270;6.804;2023-03-01T09:53:52;7.93;;;3.95;;
61903;SDS011;47857;52.270;6.804;2023-03-01T09:56:20;7.93;;;4.10;;
61903;SDS011;47857;52.270;6.804;2023-03-01T09:58:54;9.55;;;3.90;;
61903;SDS011;47857;52.270;6.804;2023-03-01T10:01:41;7.05;;;3.65;;
61903;SDS011;47857;52.270;6.804;2023-03-01T10:09:36;7.63;;;3.95;;
61903;SDS011;47857;52.270;6.804;2023-03-01T10:12:04;8.13;;;4.07;;
61903;SDS011;47857;52.270;6.804;2023-03-01T10:14:35;9.57;;;4.10;;
61903;SDS011;47857;52.270;6.804;2023-03-01T10:17:04;8.05;;;4.40;;
61903;SDS011;47857;52.270;6.804;2023-03-01T10:19:49;10.02;;;4.55;;
61903;SDS011;47857;52.270;6.804;2023-03-01T10:22:15;9.38;;;4.15;;
61903;SDS011;47857;52.270;6.804;2023-03-01T10:24:41;7.53;;;4.30;;
61903;SDS011;47857;52.270;6.804;2023-03-01T10:27:17;8.95;;;4.50;;
61903;SDS011;47857;52.270;6.804;2023-03-01T10:29:49;10.73;;;4.28;;
61903;SDS011;47857;52.270;6.804;2023-03-01T10:32:23;8.85;;;4.60;;
61903;SDS011;47857;52.270;6.804;2023-03-01T10:34:49;6.07;;;4.15;;
61903;SDS011;47857;52.270;6.804;2023-03-01T10:37:16;7.43;;;4.10;;
61903;SDS011;47857;52.270;6.804;2023-03-01T10:40:06;9.88;;;4.15;;
61903;SDS011;47857;52.270;6.804;2023-03-01T10:42:34;7.53;;;4.47;;
61903;SDS011;47857;52.270;6.804;2023-03-01T10:48:19;7.03;;;4.15;;
61903;SDS011;47857;52.270;6.804;2023-03-01T10:50:49;7.10;;;3.72;;
61903;SDS011;47857;52.270;6.804;2023-03-01T10:55:56;7.40;;;4.00;;
61903;SDS011;47857;52.270;6.804;2023-03-01T10:58:23;7.47;;;4.28;;
61903;SDS011;47857;52.270;6.804;2023-03-01T11:03:21;6.70;;;3.85;;
61903;SDS011;47857;52.270;6.804;2023-03-01T11:05:50;9.32;;;4.43;;
61903;SDS011;47857;52.270;6.804;2023-03-01T11:08:25;6.85;;;4.03;;
61903;SDS011;47857;52.270;6.804;2023-03-01T11:11:03;6.55;;;4.00;;
61903;SDS011;47857;52.270;6.804;2023-03-01T11:16:58;11.98;;;5.05;;
61903;SDS011;47857;52.270;6.804;2023-03-01T11:19:15;7.65;;;4.30;;
61903;SDS011;47857;52.270;6.804;2023-03-01T11:21:56;12.00;;;5.03;;
61903;SDS011;47857;52.270;6.804;2023-03-01T11:24:30;9.10;;;5.10;;
61903;SDS011;47857;52.270;6.804;2023-03-01T11:27:00;7.93;;;4.25;;
61903;SDS011;47857;52.270;6.804;2023-03-01T11:32:05;6.63;;;4.00;;
61903;SDS011;47857;52.270;6.804;2023-03-01T11:37:37;7.85;;;4.00;;
61903;SDS011;47857;52.270;6.804;2023-03-01T11:56:55;7.43;;;3.90;;
61903;SDS011;47857;52.270;6.804;2023-03-01T11:59:35;9.35;;;4.22;;
61903;SDS011;47857;52.270;6.804;2023-03-01T12:02:15;6.63;;;4.05;;
61903;SDS011;47857;52.270;6.804;2023-03-01T12:10:27;8.75;;;3.70;;
61903;SDS011;47857;52.270;6.804;2023-03-01T12:12:58;9.00;;;4.00;;
61903;SDS011;47857;52.270;6.804;2023-03-01T12:15:38;7.75;;;4.10;;
61903;SDS011;47857;52.270;6.804;2023-03-01T12:34:39;7.78;;;3.10;;
61903;SDS011;47857;52.270;6.804;2023-03-01T12:51:08;4.95;;;3.10;;
61903;SDS011;47857;52.270;6.804;2023-03-01T12:53:40;6.90;;;3.40;;
61903;SDS011;47857;52.270;6.804;2023-03-01T12:56:08;8.68;;;3.08;;
61903;SDS011;47857;52.270;6.804;2023-03-01T13:01:48;6.10;;;3.00;;
61903;SDS011;47857;52.270;6.804;2023-03-01T13:17:48;4.30;;;2.78;;
61903;SDS011;47857;52.270;6.804;2023-03-01T13:20:19;5.82;;;3.05;;
61903;SDS011;47857;52.270;6.804;2023-03-01T13:22:46;5.18;;;2.75;;
61903;SDS011;47857;52.270;6.804;2023-03-01T13:27:39;6.60;;;3.17;;
61903;SDS011;47857;52.270;6.804;2023-03-01T13:30:12;4.78;;;2.97;;
61903;SDS011;47857;52.270;6.804;2023-03-01T13:35:53;4.28;;;2.85;;
61903;SDS011;47857;52.270;6.804;2023-03-01T13:41:04;6.00;;;2.92;;
61903;SDS011;47857;52.270;6.804;2023-03-01T13:43:34;7.30;;;2.60;;
61903;SDS011;47857;52.270;6.804;2023-03-01T13:46:01;5.47;;;2.88;;
61903;SDS011;47857;52.270;6.804;2023-03-01T13:48:36;4.40;;;2.42;;
61903;SDS011;47857;52.270;6.804;2023-03-01T13:51:03;7.95;;;3.20;;
61903;SDS011;47857;52.270;6.804;2023-03-01T13:53:45;6.15;;;2.85;;
61903;SDS011;47857;52.270;6.804;2023-03-01T13:56:12;4.05;;;2.60;;
61903;SDS011;47857;52.270;6.804;2023-03-01T13:58:54;7.47;;;2.65;;
61903;SDS011;47857;52.270;6.804;2023-03-01T14:01:33;6.15;;;2.50;;
61903;SDS011;47857;52.270;6.804;2023-03-01T14:04:00;3.90;;;2.50;;
61903;SDS011;47857;52.270;6.804;2023-03-01T14:06:30;4.78;;;2.50;;
61903;SDS011;47857;52.270;6.804;2023-03-01T14:15:16;4.65;;;2.80;;
61903;SDS011;47857;52.270;6.804;2023-03-01T14:17:47;6.35;;;2.60;;
61903;SDS011;47857;52.270;6.804;2023-03-01T14:20:17;5.72;;;2.70;;
61903;SDS011;47857;52.270;6.804;2023-03-01T14:22:44;7.13;;;3.08;;
61903;SDS011;47857;52.270;6.804;2023-03-01T14:30:27;5.22;;;2.78;;
61903;SDS011;47857;52.270;6.804;2023-03-01T14:32:57;4.78;;;2.92;;
61903;SDS011;47857;52.270;6.804;2023-03-01T14:35:25;7.20;;;2.90;;
61903;SDS011;47857;52.270;6.804;2023-03-01T14:37:58;5.97;;;2.97;;
61903;SDS011;47857;52.270;6.804;2023-03-01T14:43:04;4.88;;;2.53;;
61903;SDS011;47857;52.270;6.804;2023-03-01T14:45:34;5.57;;;3.17;;
61903;SDS011;47857;52.270;6.804;2023-03-01T14:48:01;6.57;;;2.75;;
61903;SDS011;47857;52.270;6.804;2023-03-01T14:50:36;5.68;;;2.90;;
61903;SDS011;47857;52.270;6.804;2023-03-01T14:53:06;5.25;;;3.00;;
61903;SDS011;47857;52.270;6.804;2023-03-01T14:55:42;5.13;;;2.80;;
61903;SDS011;47857;52.270;6.804;2023-03-01T14:58:14;5.38;;;2.72;;
61903;SDS011;47857;52.270;6.804;2023-03-01T15:00:46;7.18;;;3.08;;
61903;SDS011;47857;52.270;6.804;2023-03-01T15:05:54;5.15;;;3.10;;
61903;SDS011;47857;52.270;6.804;2023-03-01T15:08:21;4.63;;;2.60;;
61903;SDS011;47857;52.270;6.804;2023-03-01T15:10:56;4.63;;;2.67;;
61903;SDS011;47857;52.270;6.804;2023-03-01T15:13:42;4.70;;;2.67;;
61903;SDS011;47857;52.270;6.804;2023-03-01T15:18:46;4.65;;;2.88;;
61903;SDS011;47857;52.270;6.804;2023-03-01T15:23:55;6.68;;;3.00;;
61903;SDS011;47857;52.270;6.804;2023-03-01T15:26:42;5.65;;;3.50;;
61903;SDS011;47857;52.270;6.804;2023-03-01T15:29:15;7.68;;;3.08;;
61903;SDS011;47857;52.270;6.804;2023-03-01T15:31:42;5.03;;;2.80;;
61903;SDS011;47857;52.270;6.804;2023-03-01T15:34:50;5.65;;;3.00;;
61903;SDS011;47857;52.270;6.804;2023-03-01T15:37:02;5.03;;;2.97;;
61903;SDS011;47857;52.270;6.804;2023-03-01T15:39:43;6.38;;;3.42;;
61903;SDS011;47857;52.270;6.804;2023-03-01T15:45:06;5.75;;;2.72;;
61903;SDS011;47857;52.270;6.804;2023-03-01T15:47:38;4.50;;;2.80;;
61903;SDS011;47857;52.270;6.804;2023-03-01T15:50:04;6.57;;;2.80;;
61903;SDS011;47857;52.270;6.804;2023-03-01T15:52:35;6.70;;;2.95;;
61903;SDS011;47857;52.270;6.804;2023-03-01T15:55:23;8.52;;;3.20;;
61903;SDS011;47857;52.270;6.804;2023-03-01T15:57:49;5.93;;;2.78;;
61903;SDS011;47857;52.270;6.804;2023-03-01T16:00:15;4.38;;;2.80;;
61903;SDS011;47857;52.270;6.804;2023-03-01T16:02:42;5.05;;;3.00;;
61903;SDS011;47857;52.270;6.804;2023-03-01T16:05:30;4.53;;;2.63;;
61903;SDS011;47857;52.270;6.804;2023-03-01T16:07:56;4.20;;;2.60;;
61903;SDS011;47857;52.270;6.804;2023-03-01T16:10:21;5.43;;;2.63;;
61903;SDS011;47857;52.270;6.804;2023-03-01T16:12:47;5.00;;;3.15;;
61903;SDS011;47857;52.270;6.804;2023-03-01T16:18:01;7.05;;;3.13;;
61903;SDS011;47857;52.270;6.804;2023-03-01T16:20:27;5.13;;;3.28;;
61903;SDS011;47857;52.270;6.804;2023-03-01T16:22:54;5.10;;;3.10;;
61903;SDS011;47857;52.270;6.804;2023-03-01T16:25:21;5.13;;;3.13;;
61903;SDS011;47857;52.270;6.804;2023-03-01T16:27:47;4.38;;;2.75;;
61903;SDS011;47857;52.270;6.804;2023-03-01T16:30:15;5.05;;;3.00;;
61903;SDS011;47857;52.270;6.804;2023-03-01T16:32:43;4.72;;;2.80;;
61903;SDS011;47857;52.270;6.804;2023-03-01T16:35:10;5.15;;;3.03;;
61903;SDS011;47857;52.270;6.804;2023-03-01T16:37:37;5.72;;;3.20;;
61903;SDS011;47857;52.270;6.804;2023-03-01T16:40:03;5.93;;;3.30;;
61903;SDS011;47857;52.270;6.804;2023-03-01T16:42:34;7.05;;;3.35;;
61903;SDS011;47857;52.270;6.804;2023-03-01T16:45:05;5.13;;;2.95;;
61903;SDS011;47857;52.270;6.804;2023-03-01T16:47:32;5.35;;;3.30;;
61903;SDS011;47857;52.270;6.804;2023-03-01T16:49:58;5.85;;;3.10;;
61903;SDS011;47857;52.270;6.804;2023-03-01T16:52:24;4.97;;;3.38;;
61903;SDS011;47857;52.270;6.804;2023-03-01T16:54:49;6.80;;;3.40;;
61903;SDS011;47857;52.270;6.804;2023-03-01T16:57:15;6.80;;;3.25;;
61903;SDS011;47857;52.270;6.804;2023-03-01T16:59:41;8.43;;;4.03;;
61903;SDS011;47857;52.270;6.804;2023-03-01T17:02:09;8.35;;;4.03;;
61903;SDS011;47857;52.270;6.804;2023-03-01T17:04:36;5.55;;;3.90;;
61903;SDS011;47857;52.270;6.804;2023-03-01T17:07:01;7.68;;;3.97;;
61903;SDS011;47857;52.270;6.804;2023-03-01T17:09:27;10.65;;;4.97;;
61903;SDS011;47857;52.270;6.804;2023-03-01T17:11:53;9.00;;;5.22;;